Time;durP1;ratioP1;P1;durP2;ratioP2;P2;SDS_P1;SDS_P2;PMS_P1;PMS_P2;Temp;Humidity;BMP_temperature;BMP_pressure;BME280_temperature;BME280_humidity;BME280_pressure;Samples;Min_cycle;Max_cycle;Signal;HPM_P1;HPM_P2
2022/08/20 00:01:45;;;;;;;;;;;614.40;2432.00;;;;;;5073390;28;19912;-55
2022/08/20 00:04:11;;;;;;;;;;;589.60;2432.00;;;;;;5073120;28;19913;-56
2022/08/20 00:06:39;;;;;;;;;;;589.40;2432.00;;;;;;5073426;28;20386;-55
2022/08/20 00:09:04;;;;;;;;;;;589.20;2432.00;;;;;;5073316;28;19909;-56
2022/08/20 00:11:32;;;;;;;;;;;589.40;2432.00;;;;;;5073093;28;20011;-56
2022/08/20 00:13:59;;;;;;;;;;;589.40;2432.00;;;;;;5073178;28;19913;-55
2022/08/20 00:16:26;;;;;;;;;;;589.50;2432.00;;;;;;5073246;28;19954;-56
2022/08/20 00:18:51;;;;;;;;;;;589.60;2432.00;;;;;;5072732;28;19920;-55
2022/08/20 00:21:18;;;;;;;;;;;589.60;2432.00;;;;;;5073131;28;19912;-56
2022/08/20 00:23:45;;;;;;;;;;;589.60;2432.00;;;;;;5073102;28;19959;-55
2022/08/20 00:26:12;;;;;;;;;;;614.40;2432.00;;;;;;5072898;28;19909;-56
2022/08/20 00:28:38;;;;;;;;;;;614.40;2432.00;;;;;;5072977;28;20190;-56
2022/08/20 00:31:04;;;;;;;;;;;614.40;2432.00;;;;;;5072749;28;20286;-56
2022/08/20 00:33:30;;;;;;;;;;;614.40;2432.00;;;;;;5072810;28;19942;-56
2022/08/20 00:35:56;;;;;;;;;;;614.40;2432.00;;;;;;5073174;28;19909;-56
2022/08/20 00:38:25;;;;;;;;;;;589.70;2432.00;;;;;;5072483;28;20267;-56
2022/08/20 00:40:53;;;;;;;;;;;589.70;2432.00;;;;;;5072763;28;19909;-56
2022/08/20 00:43:24;;;;;;;;;;;589.60;2432.00;;;;;;5072536;28;19915;-58
2022/08/20 00:45:54;;;;;;;;;;;589.50;2432.00;;;;;;5072568;28;19952;-55
2022/08/20 00:48:20;;;;;;;;;;;589.50;2432.00;;;;;;5072403;28;19954;-55
2022/08/20 00:50:46;;;;;;;;;;;589.40;2432.00;;;;;;5072493;28;19915;-55
2022/08/20 00:53:11;;;;;;;;;;;589.20;2432.00;;;;;;5072489;28;19908;-57
2022/08/20 00:55:38;;;;;;;;;;;589.20;2432.00;;;;;;5072357;28;20358;-56
2022/08/20 00:58:07;;;;;;;;;;;589.20;2432.00;;;;;;5072382;28;19916;-55
2022/08/20 01:00:38;;;;;;;;;;;589.10;2432.00;;;;;;5071876;28;19912;-55
2022/08/20 01:03:08;;;;;;;;;;;589.10;2432.00;;;;;;5077468;28;19945;-55
2022/08/20 01:05:37;;;;;;;;;;;589.20;2432.00;;;;;;5082901;28;19983;-54
2022/08/20 01:08:03;;;;;;;;;;;589.20;2432.00;;;;;;5080908;28;19913;-55
2022/08/20 01:10:33;;;;;;;;;;;589.20;2432.00;;;;;;5081311;28;19915;-55
2022/08/20 01:12:59;;;;;;;;;;;589.20;2432.00;;;;;;5082440;28;19908;-55
2022/08/20 01:15:27;;;;;;;;;;;589.10;2432.00;;;;;;5081336;28;19916;-54
2022/08/20 01:17:54;;;;;;;;;;;588.90;2432.00;;;;;;5080383;28;19912;-55
2022/08/20 01:20:25;;;;;;;;;;;564.10;2432.00;;;;;;5077493;28;20270;-55
2022/08/20 01:25:49;;;;;;;;;;;563.80;2432.00;;;;;;5078800;28;20361;-55
2022/08/20 01:28:16;;;;;;;;;;;563.80;2432.00;;;;;;5080296;28;20354;-55
2022/08/20 01:30:42;;;;;;;;;;;563.80;2432.00;;;;;;5081607;28;20365;-55
2022/08/20 01:33:08;;;;;;;;;;;563.90;2432.00;;;;;;5081559;28;19916;-54
2022/08/20 01:35:34;;;;;;;;;;;563.80;2432.00;;;;;;5092113;28;19909;-54
2022/08/20 01:38:00;;;;;;;;;;;563.70;2432.00;;;;;;5091687;28;20011;-53
2022/08/20 01:40:43;;;;;;;;;;;563.80;2432.00;;;;;;5091977;28;19958;-55
2022/08/20 01:43:09;;;;;;;;;;;563.80;2432.00;;;;;;5091704;28;20373;-55
2022/08/20 01:45:35;;;;;;;;;;;564.00;2432.00;;;;;;5092074;28;19908;-54
2022/08/20 01:48:01;;;;;;;;;;;564.10;2432.00;;;;;;5091679;28;19931;-54
2022/08/20 01:50:29;;;;;;;;;;;564.10;2432.00;;;;;;5091658;28;19939;-54
2022/08/20 01:53:05;;;;;;;;;;;564.00;2432.00;;;;;;5091598;28;19909;-55
2022/08/20 01:55:31;;;;;;;;;;;564.00;2432.00;;;;;;5091516;28;19974;-55
2022/08/20 01:57:58;;;;;;;;;;;564.00;2432.00;;;;;;5091671;28;19908;-55
2022/08/20 02:00:23;;;;;;;;;;;564.00;2432.00;;;;;;5091507;28;19944;-55
2022/08/20 02:02:49;;;;;;;;;;;564.00;2432.00;;;;;;5091407;28;19912;-54
2022/08/20 02:05:15;;;;;;;;;;;564.00;2432.00;;;;;;5091527;28;20328;-54
2022/08/20 02:07:41;;;;;;;;;;;563.70;2432.00;;;;;;5091327;28;19915;-55
2022/08/20 02:10:07;;;;;;;;;;;563.70;2432.00;;;;;;5091426;28;19958;-54
2022/08/20 02:12:34;;;;;;;;;;;563.70;2432.00;;;;;;5091142;28;19908;-55
2022/08/20 02:14:59;;;;;;;;;;;563.50;2432.00;;;;;;5091118;28;19912;-55
2022/08/20 02:17:25;;;;;;;;;;;563.60;2432.00;;;;;;5091413;28;19993;-54
2022/08/20 02:19:59;;;;;;;;;;;563.60;2432.00;;;;;;5090417;28;19944;-55
2022/08/20 02:22:33;;;;;;;;;;;563.60;2432.00;;;;;;5091275;28;19908;-54
2022/08/20 02:24:59;;;;;;;;;;;563.70;2432.00;;;;;;5090955;28;19908;-55
2022/08/20 02:27:25;;;;;;;;;;;563.80;2432.00;;;;;;5091186;28;19908;-55
2022/08/20 02:29:51;;;;;;;;;;;563.80;2432.00;;;;;;5090671;28;19916;-55
2022/08/20 02:32:17;;;;;;;;;;;563.80;2432.00;;;;;;5091221;28;19974;-54
2022/08/20 02:34:43;;;;;;;;;;;563.70;2432.00;;;;;;5091092;28;19908;-55
2022/08/20 02:37:09;;;;;;;;;;;563.60;2432.00;;;;;;5091066;28;19954;-55
2022/08/20 02:39:35;;;;;;;;;;;563.60;2432.00;;;;;;5091010;28;19958;-55
2022/08/20 02:42:02;;;;;;;;;;;563.60;2432.00;;;;;;5090868;28;19908;-55
2022/08/20 02:44:28;;;;;;;;;;;563.60;2432.00;;;;;;5091019;28;19920;-54
2022/08/20 02:46:54;;;;;;;;;;;563.60;2432.00;;;;;;5091032;28;19912;-54
2022/08/20 02:49:19;;;;;;;;;;;563.70;2432.00;;;;;;5090913;28;19908;-55
2022/08/20 02:51:45;;;;;;;;;;;563.80;2432.00;;;;;;5090922;28;19908;-55
2022/08/20 02:54:11;;;;;;;;;;;563.80;2432.00;;;;;;5090782;28;19908;-55
2022/08/20 02:56:37;;;;;;;;;;;563.90;2432.00;;;;;;5091108;28;19915;-55
2022/08/20 02:59:03;;;;;;;;;;;563.80;2432.00;;;;;;5090755;28;19920;-55
2022/08/20 03:01:29;;;;;;;;;;;563.90;2432.00;;;;;;5090812;28;20419;-55
2022/08/20 03:03:57;;;;;;;;;;;563.90;2432.00;;;;;;5090820;28;19912;-54
2022/08/20 03:06:24;;;;;;;;;;;563.90;2432.00;;;;;;5090919;28;19974;-54
2022/08/20 03:08:50;;;;;;;;;;;563.90;2432.00;;;;;;5090585;28;19908;-55
2022/08/20 03:11:16;;;;;;;;;;;563.90;2432.00;;;;;;5090645;28;19908;-54
2022/08/20 03:13:41;;;;;;;;;;;563.90;2432.00;;;;;;5090789;28;20292;-54
2022/08/20 03:16:08;;;;;;;;;;;563.80;2432.00;;;;;;5090791;28;19919;-54
2022/08/20 03:18:36;;;;;;;;;;;563.80;2432.00;;;;;;5090741;28;19916;-54
2022/08/20 03:21:03;;;;;;;;;;;563.90;2432.00;;;;;;5090526;28;19915;-54
2022/08/20 03:23:29;;;;;;;;;;;563.80;2432.00;;;;;;5090338;28;19931;-55
2022/08/20 03:25:55;;;;;;;;;;;563.70;2432.00;;;;;;5090699;28;20350;-55
2022/08/20 03:28:20;;;;;;;;;;;563.70;2432.00;;;;;;5090544;28;19995;-54
2022/08/20 03:30:46;;;;;;;;;;;563.70;2432.00;;;;;;5090840;28;19961;-55
2022/08/20 03:33:11;;;;;;;;;;;563.70;2432.00;;;;;;5094226;28;19916;-55
2022/08/20 03:35:37;;;;;;;;;;;563.70;2432.00;;;;;;5094181;28;19912;-54
2022/08/20 03:38:10;;;;;;;;;;;563.60;2432.00;;;;;;5094070;28;19919;-54
2022/08/20 03:40:36;;;;;;;;;;;563.60;2432.00;;;;;;5094498;28;19916;-54
2022/08/20 03:43:02;;;;;;;;;;;563.60;2432.00;;;;;;5093997;28;19908;-55
2022/08/20 03:45:28;;;;;;;;;;;563.60;2432.00;;;;;;5093990;28;19966;-54
2022/08/20 03:47:54;;;;;;;;;;;563.60;2432.00;;;;;;5094295;28;19908;-55
2022/08/20 03:50:22;;;;;;;;;;;563.70;2432.00;;;;;;5093940;28;19909;-54
2022/08/20 03:52:47;;;;;;;;;;;563.70;2432.00;;;;;;5093831;28;19957;-55
2022/08/20 03:55:13;;;;;;;;;;;563.70;2432.00;;;;;;5093706;28;19908;-54
2022/08/20 03:57:46;;;;;;;;;;;563.70;2432.00;;;;;;5093646;28;19908;-55
2022/08/20 04:00:13;;;;;;;;;;;563.60;2432.00;;;;;;5093660;28;19916;-54
2022/08/20 04:02:39;;;;;;;;;;;563.60;2432.00;;;;;;5093608;28;19959;-55
2022/08/20 04:05:05;;;;;;;;;;;563.60;2432.00;;;;;;5093418;28;19920;-55
2022/08/20 04:07:31;;;;;;;;;;;563.60;2432.00;;;;;;5093625;28;19961;-54
2022/08/20 04:09:56;;;;;;;;;;;563.60;2432.00;;;;;;5093682;28;19908;-54
2022/08/20 04:12:23;;;;;;;;;;;563.60;2432.00;;;;;;5093417;28;20464;-55
2022/08/20 04:14:49;;;;;;;;;;;563.60;2432.00;;;;;;5093444;28;19912;-55
2022/08/20 04:17:16;;;;;;;;;;;563.70;2432.00;;;;;;5093399;28;19934;-55
2022/08/20 04:19:43;;;;;;;;;;;563.70;2432.00;;;;;;5093232;28;20247;-54
2022/08/20 04:22:12;;;;;;;;;;;563.70;2432.00;;;;;;5093109;28;19913;-55
2022/08/20 04:24:38;;;;;;;;;;;563.80;2432.00;;;;;;5093284;28;19912;-54
2022/08/20 04:27:04;;;;;;;;;;;563.90;2432.00;;;;;;5093306;28;20270;-54
2022/08/20 04:29:30;;;;;;;;;;;564.00;2432.00;;;;;;5092918;28;19908;-54
2022/08/20 04:31:55;;;;;;;;;;;564.10;2432.00;;;;;;5092984;28;19912;-54
2022/08/20 04:34:21;;;;;;;;;;;588.80;2432.00;;;;;;5092935;28;19912;-54
2022/08/20 04:36:46;;;;;;;;;;;588.80;2432.00;;;;;;5093146;28;20316;-55
2022/08/20 04:39:13;;;;;;;;;;;588.90;2432.00;;;;;;5092845;28;20014;-54
2022/08/20 04:41:39;;;;;;;;;;;588.90;2432.00;;;;;;5093115;28;19908;-55
2022/08/20 04:44:04;;;;;;;;;;;589.00;2432.00;;;;;;5092534;28;19931;-54
2022/08/20 04:46:31;;;;;;;;;;;589.00;2432.00;;;;;;5092734;28;19908;-55
2022/08/20 04:48:57;;;;;;;;;;;589.00;2432.00;;;;;;5092944;28;19908;-54
2022/08/20 04:51:22;;;;;;;;;;;588.90;2432.00;;;;;;5092614;28;19908;-55
2022/08/20 04:53:48;;;;;;;;;;;589.00;2432.00;;;;;;5092776;28;19995;-55
2022/08/20 04:56:13;;;;;;;;;;;588.90;2432.00;;;;;;5092748;28;19909;-55
2022/08/20 04:58:39;;;;;;;;;;;588.90;2432.00;;;;;;5092218;28;20282;-55
2022/08/20 05:01:09;;;;;;;;;;;589.00;2432.00;;;;;;5092657;28;19916;-55
2022/08/20 05:03:36;;;;;;;;;;;589.10;2432.00;;;;;;5092686;28;19912;-56
2022/08/20 05:06:03;;;;;;;;;;;589.00;2432.00;;;;;;5092147;28;19920;-55
2022/08/20 05:08:28;;;;;;;;;;;589.00;2432.00;;;;;;5092422;28;19912;-55
2022/08/20 05:10:54;;;;;;;;;;;589.00;2432.00;;;;;;5092480;28;20335;-54
2022/08/20 05:13:20;;;;;;;;;;;589.00;2432.00;;;;;;5092222;28;19998;-55
2022/08/20 05:15:47;;;;;;;;;;;589.10;2432.00;;;;;;5092250;28;19908;-54
2022/08/20 05:18:15;;;;;;;;;;;589.10;2432.00;;;;;;5091862;28;20006;-55
2022/08/20 05:20:41;;;;;;;;;;;589.20;2432.00;;;;;;5092025;28;20412;-55
2022/08/20 05:23:08;;;;;;;;;;;589.10;2432.00;;;;;;5092135;28;19942;-55
2022/08/20 05:25:34;;;;;;;;;;;588.90;2432.00;;;;;;5091803;28;20342;-54
2022/08/20 05:28:01;;;;;;;;;;;588.80;2432.00;;;;;;5091839;28;19915;-54
2022/08/20 05:30:32;;;;;;;;;;;588.80;2432.00;;;;;;5091706;28;19912;-54
2022/08/20 05:33:02;;;;;;;;;;;588.80;2432.00;;;;;;5092087;28;19971;-55
2022/08/20 05:35:28;;;;;;;;;;;564.10;2432.00;;;;;;5092001;28;19912;-54
2022/08/20 05:37:54;;;;;;;;;;;564.00;2432.00;;;;;;5091714;28;19914;-55
2022/08/20 05:40:21;;;;;;;;;;;564.10;2432.00;;;;;;5091810;28;19958;-54
2022/08/20 05:42:47;;;;;;;;;;;564.00;2432.00;;;;;;5091981;28;19990;-55
2022/08/20 05:45:15;;;;;;;;;;;564.10;2432.00;;;;;;5091656;28;19951;-56
2022/08/20 05:47:41;;;;;;;;;;;564.00;2432.00;;;;;;5091465;28;19909;-54
2022/08/20 05:50:08;;;;;;;;;;;563.80;2432.00;;;;;;5091744;28;20015;-56
2022/08/20 05:52:33;;;;;;;;;;;563.90;2432.00;;;;;;5091749;28;19908;-55
2022/08/20 05:54:59;;;;;;;;;;;563.90;2432.00;;;;;;5090592;28;19912;-55
2022/08/20 05:57:25;;;;;;;;;;;563.90;2432.00;;;;;;5091592;28;19946;-54
2022/08/20 05:59:51;;;;;;;;;;;564.00;2432.00;;;;;;5091007;28;19917;-55
2022/08/20 06:05:00;;;;;;;;;;;564.10;2432.00;;;;;;5091244;28;20018;-54
2022/08/20 06:07:26;;;;;;;;;;;564.10;2432.00;;;;;;5091420;28;19936;-54
2022/08/20 06:09:52;;;;;;;;;;;564.10;2432.00;;;;;;5091164;28;20366;-53
2022/08/20 06:12:17;;;;;;;;;;;588.80;2432.00;;;;;;5091459;28;19912;-55
2022/08/20 06:14:43;;;;;;;;;;;588.80;2432.00;;;;;;5091157;28;19991;-54
2022/08/20 06:17:10;;;;;;;;;;;588.80;2432.00;;;;;;5091010;28;19915;-54
2022/08/20 06:19:36;;;;;;;;;;;564.10;2432.00;;;;;;5091133;28;19916;-55
2022/08/20 06:22:02;;;;;;;;;;;564.10;2432.00;;;;;;5090975;28;19927;-54
2022/08/20 06:24:27;;;;;;;;;;;564.10;2432.00;;;;;;5091264;28;19908;-54
2022/08/20 06:26:57;;;;;;;;;;;588.80;2432.00;;;;;;5090940;28;19908;-54
2022/08/20 06:29:23;;;;;;;;;;;588.80;2432.00;;;;;;5090827;28;20285;-54
2022/08/20 06:31:48;;;;;;;;;;;564.10;2432.00;;;;;;5090798;28;19912;-53
2022/08/20 06:34:14;;;;;;;;;;;564.00;2432.00;;;;;;5091121;28;19913;-55
2022/08/20 06:36:39;;;;;;;;;;;564.00;2432.00;;;;;;5090908;28;20362;-55
2022/08/20 06:39:05;;;;;;;;;;;588.80;2432.00;;;;;;5091022;28;19966;-54
2022/08/20 06:41:31;;;;;;;;;;;588.80;2432.00;;;;;;5090793;28;19916;-54
2022/08/20 06:43:57;;;;;;;;;;;588.90;2432.00;;;;;;5091212;28;19915;-54
2022/08/20 06:46:22;;;;;;;;;;;588.80;2432.00;;;;;;5090876;28;19908;-54
2022/08/20 06:48:49;;;;;;;;;;;588.80;2432.00;;;;;;5090841;28;19938;-55
2022/08/20 06:51:14;;;;;;;;;;;564.10;2432.00;;;;;;5090988;28;19908;-55
2022/08/20 06:53:40;;;;;;;;;;;588.80;2432.00;;;;;;5090746;28;19942;-56
2022/08/20 06:56:06;;;;;;;;;;;588.80;2432.00;;;;;;5091169;28;19908;-54
2022/08/20 06:58:31;;;;;;;;;;;588.80;2432.00;;;;;;5090971;28;20027;-55
2022/08/20 07:00:58;;;;;;;;;;;588.80;2432.00;;;;;;5090655;28;20289;-55
2022/08/20 07:03:24;;;;;;;;;;;588.80;2432.00;;;;;;5090780;28;19919;-56
2022/08/20 07:05:50;;;;;;;;;;;588.80;2432.00;;;;;;5090752;28;20327;-57
2022/08/20 07:08:17;;;;;;;;;;;588.80;2432.00;;;;;;5094654;28;19908;-57
2022/08/20 07:10:43;;;;;;;;;;;589.00;2432.00;;;;;;5094417;28;19914;-56
2022/08/20 07:13:10;;;;;;;;;;;589.40;2432.00;;;;;;5094650;28;19908;-56
2022/08/20 07:15:36;;;;;;;;;;;589.60;2432.00;;;;;;5094374;28;19908;-54
2022/08/20 07:18:03;;;;;;;;;;;589.60;2432.00;;;;;;5094269;28;19946;-55
2022/08/20 07:20:30;;;;;;;;;;;589.60;2432.00;;;;;;5094395;28;19908;-54
2022/08/20 07:22:56;;;;;;;;;;;589.40;2432.00;;;;;;5094494;28;19915;-54
2022/08/20 07:25:21;;;;;;;;;;;589.30;2432.00;;;;;;5094701;28;19913;-56
2022/08/20 07:27:48;;;;;;;;;;;589.30;2432.00;;;;;;5094358;28;19909;-55
2022/08/20 07:33:00;;;;;;;;;;;589.20;2432.00;;;;;;5094102;28;19934;-55
2022/08/20 07:35:26;;;;;;;;;;;589.10;2432.00;;;;;;5094233;28;20409;-54
2022/08/20 07:37:53;;;;;;;;;;;589.00;2432.00;;;;;;5088427;28;20057;-54
2022/08/20 07:40:21;;;;;;;;;;;589.10;2432.00;;;;;;5072551;28;19947;-55
2022/08/20 07:42:49;;;;;;;;;;;589.20;2432.00;;;;;;5070078;28;19916;-56
2022/08/20 07:45:17;;;;;;;;;;;589.40;2432.00;;;;;;5072324;28;19916;-55
2022/08/20 07:47:42;;;;;;;;;;;589.60;2432.00;;;;;;5071785;28;19917;-54
2022/08/20 07:50:09;;;;;;;;;;;589.60;2432.00;;;;;;5070880;28;19917;-55
2022/08/20 07:52:35;;;;;;;;;;;589.70;2432.00;;;;;;5072223;28;19916;-53
2022/08/20 07:55:01;;;;;;;;;;;589.70;2432.00;;;;;;5072961;28;19916;-55
2022/08/20 07:57:27;;;;;;;;;;;589.70;2432.00;;;;;;5073858;28;19909;-55
2022/08/20 07:59:52;;;;;;;;;;;589.70;2432.00;;;;;;5072915;28;19924;-54
2022/08/20 08:02:18;;;;;;;;;;;614.40;2432.00;;;;;;5072773;28;20012;-56
2022/08/20 08:04:44;;;;;;;;;;;614.80;2432.00;;;;;;5073164;28;19916;-56
2022/08/20 08:07:09;;;;;;;;;;;614.90;2432.00;;;;;;5073104;28;19909;-53
2022/08/20 08:09:35;;;;;;;;;;;614.90;2432.00;;;;;;5073221;28;19999;-55
2022/08/20 08:12:01;;;;;;;;;;;615.00;2432.00;;;;;;5073200;28;20251;-55
2022/08/20 08:14:28;;;;;;;;;;;615.30;2432.00;;;;;;5073220;28;19908;-55
2022/08/20 08:16:56;;;;;;;;;;;615.10;2432.00;;;;;;5072942;28;19962;-54
2022/08/20 08:19:22;;;;;;;;;;;640.30;2432.00;;;;;;5072164;28;19939;-53
2022/08/20 08:21:48;;;;;;;;;;;640.60;2432.00;;;;;;5073110;28;20445;-54
2022/08/20 08:24:14;;;;;;;;;;;640.90;2432.00;;;;;;5073030;28;20346;-55
2022/08/20 08:26:40;;;;;;;;;;;665.80;2432.00;;;;;;5073081;28;19977;-54
2022/08/20 08:29:06;;;;;;;;;;;665.90;2432.00;;;;;;5072952;28;20370;-55
2022/08/20 08:31:32;;;;;;;;;;;691.20;2432.00;;;;;;5072509;28;19912;-55
2022/08/20 08:33:58;;;;;;;;;;;691.40;2432.00;;;;;;5072843;28;19927;-54
2022/08/20 08:36:25;;;;;;;;;;;691.80;2432.00;;;;;;5072734;28;19908;-55
2022/08/20 08:38:51;;;;;;;;;;;691.70;2432.00;;;;;;5072371;28;20255;-54
2022/08/20 08:41:20;;;;;;;;;;;691.80;2432.00;;;;;;5073029;28;19916;-55
2022/08/20 08:43:47;;;;;;;;;;;691.90;2432.00;;;;;;5072647;28;19909;-55
2022/08/20 08:46:14;;;;;;;;;;;691.80;2432.00;;;;;;5072594;28;19908;-55
2022/08/20 08:48:42;;;;;;;;;;;691.70;2432.00;;;;;;5072440;28;20302;-55
2022/08/20 08:51:10;;;;;;;;;;;691.40;2432.00;;;;;;5072517;28;19912;-54
2022/08/20 08:53:39;;;;;;;;;;;691.30;2432.00;;;;;;5072501;28;19954;-55
2022/08/20 08:56:05;;;;;;;;;;;666.00;2432.00;;;;;;5072543;28;19934;-55
2022/08/20 08:58:32;;;;;;;;;;;665.90;2432.00;;;;;;5072247;28;20358;-55
2022/08/20 09:01:00;;;;;;;;;;;665.90;2432.00;;;;;;5072064;28;19973;-56
2022/08/20 09:03:28;;;;;;;;;;;666.00;2432.00;;;;;;5072378;28;19960;-55
2022/08/20 09:05:57;;;;;;;;;;;666.20;2432.00;;;;;;5072138;28;20397;-56
2022/08/20 09:08:28;;;;;;;;;;;666.20;2432.00;;;;;;5071886;28;20319;-55
2022/08/20 09:10:54;;;;;;;;;;;666.30;2432.00;;;;;;5072062;28;19909;-55
2022/08/20 09:13:20;;;;;;;;;;;666.20;2432.00;;;;;;5072060;28;19908;-57
2022/08/20 09:15:45;;;;;;;;;;;666.20;2432.00;;;;;;5072128;28;20305;-55
2022/08/20 09:18:11;;;;;;;;;;;691.40;2432.00;;;;;;5071755;28;19970;-57
2022/08/20 09:20:36;;;;;;;;;;;691.80;2432.00;;;;;;5071817;28;20354;-57
2022/08/20 09:23:04;;;;;;;;;;;691.90;2432.00;;;;;;5071813;28;19908;-55
2022/08/20 09:25:30;;;;;;;;;;;691.80;2432.00;;;;;;5071766;28;19908;-55
2022/08/20 09:27:55;;;;;;;;;;;691.30;2432.00;;;;;;5071874;28;19995;-56
2022/08/20 09:30:21;;;;;;;;;;;666.30;2432.00;;;;;;5071054;28;20277;-55
2022/08/20 09:32:46;;;;;;;;;;;665.80;2432.00;;;;;;5071677;28;19912;-56
2022/08/20 09:35:12;;;;;;;;;;;665.60;2432.00;;;;;;5071332;28;19963;-57
2022/08/20 09:37:38;;;;;;;;;;;640.90;2432.00;;;;;;5071491;28;19947;-57
2022/08/20 09:40:04;;;;;;;;;;;640.60;2432.00;;;;;;5071625;28;19939;-55
2022/08/20 09:42:31;;;;;;;;;;;640.50;2432.00;;;;;;5071436;28;19912;-56
2022/08/20 09:44:57;;;;;;;;;;;640.50;2432.00;;;;;;5071506;28;19912;-56
2022/08/20 09:47:23;;;;;;;;;;;640.40;2432.00;;;;;;5071262;28;19908;-56
2022/08/20 09:49:49;;;;;;;;;;;640.10;2432.00;;;;;;5071310;28;20042;-56
2022/08/20 09:52:20;;;;;;;;;;;640.00;2432.00;;;;;;5070705;28;19942;-56
2022/08/20 09:54:46;;;;;;;;;;;640.00;2432.00;;;;;;5068422;28;19913;-56
2022/08/20 09:57:12;;;;;;;;;;;640.10;2432.00;;;;;;5070813;28;19909;-57
2022/08/20 09:59:38;;;;;;;;;;;640.30;2432.00;;;;;;5068407;28;19924;-56
2022/08/20 10:02:03;;;;;;;;;;;640.20;2432.00;;;;;;5069183;28;20417;-56
2022/08/20 10:04:29;;;;;;;;;;;640.20;2432.00;;;;;;5068911;28;19959;-55
2022/08/20 10:06:55;;;;;;;;;;;640.10;2432.00;;;;;;5069089;28;19912;-56
2022/08/20 10:09:20;;;;;;;;;;;640.00;2432.00;;;;;;5068881;28;20430;-55
2022/08/20 10:11:46;;;;;;;;;;;615.20;2432.00;;;;;;5068986;28;20008;-55
2022/08/20 10:14:12;;;;;;;;;;;640.10;2432.00;;;;;;5068574;28;20378;-56
2022/08/20 10:16:37;;;;;;;;;;;640.10;2432.00;;;;;;5069037;28;19913;-55
2022/08/20 10:19:03;;;;;;;;;;;640.50;2432.00;;;;;;5068768;28;19917;-55
2022/08/20 10:21:29;;;;;;;;;;;640.90;2432.00;;;;;;5068724;28;20425;-56
2022/08/20 10:23:55;;;;;;;;;;;665.90;2432.00;;;;;;5069084;28;19963;-57
2022/08/20 10:26:21;;;;;;;;;;;666.20;2432.00;;;;;;5068352;28;19955;-56
2022/08/20 10:28:46;;;;;;;;;;;666.00;2432.00;;;;;;5068871;28;20332;-56
2022/08/20 10:31:12;;;;;;;;;;;666.00;2432.00;;;;;;5068489;28;19919;-55
2022/08/20 10:33:38;;;;;;;;;;;666.20;2432.00;;;;;;5069019;28;19965;-56
2022/08/20 10:36:07;;;;;;;;;;;666.00;2432.00;;;;;;5068625;28;19919;-55
2022/08/20 10:38:32;;;;;;;;;;;665.90;2432.00;;;;;;5068303;28;20474;-55
2022/08/20 10:40:58;;;;;;;;;;;666.00;2432.00;;;;;;5069789;28;19916;-57
2022/08/20 10:43:23;;;;;;;;;;;665.80;2432.00;;;;;;5072967;28;20282;-56
2022/08/20 10:45:49;;;;;;;;;;;666.00;2432.00;;;;;;5072717;28;19916;-55
2022/08/20 10:48:15;;;;;;;;;;;666.00;2432.00;;;;;;5072842;28;19908;-54
2022/08/20 10:50:41;;;;;;;;;;;666.20;2432.00;;;;;;5072595;28;19909;-56
2022/08/20 10:53:06;;;;;;;;;;;665.80;2432.00;;;;;;5072841;28;20354;-56
2022/08/20 10:55:32;;;;;;;;;;;665.60;2432.00;;;;;;5072680;28;19916;-56
2022/08/20 10:57:57;;;;;;;;;;;640.80;2432.00;;;;;;5072741;28;20768;-56
2022/08/20 11:00:23;;;;;;;;;;;640.70;2432.00;;;;;;5072158;28;19978;-55
2022/08/20 11:02:48;;;;;;;;;;;640.20;2432.00;;;;;;5072197;28;19916;-55
2022/08/20 11:05:14;;;;;;;;;;;640.10;2432.00;;;;;;5071856;28;19928;-55
2022/08/20 11:07:41;;;;;;;;;;;640.00;2432.00;;;;;;5072123;28;19954;-56
2022/08/20 11:10:08;;;;;;;;;;;640.00;2432.00;;;;;;5072454;28;19966;-57
2022/08/20 11:12:33;;;;;;;;;;;615.10;2432.00;;;;;;5072545;28;19909;-56
2022/08/20 11:14:59;;;;;;;;;;;615.10;2432.00;;;;;;5071916;28;19915;-57
2022/08/20 11:17:26;;;;;;;;;;;615.10;2432.00;;;;;;5071839;28;19912;-56
2022/08/20 11:19:52;;;;;;;;;;;615.30;2432.00;;;;;;5072092;28;19925;-56
2022/08/20 11:22:18;;;;;;;;;;;640.20;2432.00;;;;;;5073112;28;19961;-57
2022/08/20 11:24:44;;;;;;;;;;;640.40;2432.00;;;;;;5073845;28;19909;-56
2022/08/20 11:27:10;;;;;;;;;;;640.50;2432.00;;;;;;5073339;28;20476;-56
2022/08/20 11:29:36;;;;;;;;;;;640.50;2432.00;;;;;;5073901;28;19908;-57
2022/08/20 11:32:04;;;;;;;;;;;640.50;2432.00;;;;;;5073741;28;20377;-58
2022/08/20 11:34:29;;;;;;;;;;;640.60;2432.00;;;;;;5073523;28;20023;-57
2022/08/20 11:36:55;;;;;;;;;;;640.90;2432.00;;;;;;5073985;28;19944;-56
2022/08/20 11:39:21;;;;;;;;;;;665.80;2432.00;;;;;;5073441;28;19962;-56
2022/08/20 11:41:46;;;;;;;;;;;665.90;2432.00;;;;;;5074073;28;19909;-56
2022/08/20 11:44:12;;;;;;;;;;;665.90;2432.00;;;;;;5073798;28;20417;-56
2022/08/20 11:46:38;;;;;;;;;;;665.70;2432.00;;;;;;5074099;28;19913;-56
2022/08/20 11:49:03;;;;;;;;;;;640.90;2432.00;;;;;;5073566;28;19954;-56
2022/08/20 11:51:29;;;;;;;;;;;640.90;2432.00;;;;;;5073438;28;19934;-56
2022/08/20 11:53:54;;;;;;;;;;;640.70;2432.00;;;;;;5072148;28;19912;-56
2022/08/20 11:56:20;;;;;;;;;;;640.70;2432.00;;;;;;5073653;28;19909;-57
2022/08/20 11:58:46;;;;;;;;;;;640.60;2432.00;;;;;;5073464;28;20282;-56
2022/08/20 12:01:12;;;;;;;;;;;640.60;2432.00;;;;;;5073179;28;20289;-56
2022/08/20 12:03:38;;;;;;;;;;;640.50;2432.00;;;;;;5073358;28;19966;-57
2022/08/20 12:06:03;;;;;;;;;;;640.50;2432.00;;;;;;5073162;28;19921;-56
2022/08/20 12:08:29;;;;;;;;;;;640.40;2432.00;;;;;;5073273;28;19915;-57
2022/08/20 12:10:55;;;;;;;;;;;640.20;2432.00;;;;;;5073688;28;20262;-57
2022/08/20 12:13:21;;;;;;;;;;;640.00;2432.00;;;;;;5073335;28;19990;-56
2022/08/20 12:15:48;;;;;;;;;;;615.30;2432.00;;;;;;5073201;28;19940;-56
2022/08/20 12:18:14;;;;;;;;;;;615.20;2432.00;;;;;;5073284;28;19908;-56
2022/08/20 12:20:40;;;;;;;;;;;615.10;2432.00;;;;;;5073079;28;19927;-56
2022/08/20 12:23:05;;;;;;;;;;;615.00;2432.00;;;;;;5073246;28;19908;-56
2022/08/20 12:25:31;;;;;;;;;;;614.90;2432.00;;;;;;5072977;28;19909;-56
2022/08/20 12:27:58;;;;;;;;;;;614.90;2432.00;;;;;;5073223;28;20309;-57
2022/08/20 12:30:24;;;;;;;;;;;614.70;2432.00;;;;;;5072727;28;20297;-56
2022/08/20 12:32:49;;;;;;;;;;;614.70;2432.00;;;;;;5072828;28;19919;-56
2022/08/20 12:35:16;;;;;;;;;;;614.70;2432.00;;;;;;5072858;28;20362;-56
2022/08/20 12:37:43;;;;;;;;;;;614.80;2432.00;;;;;;5072723;28;19949;-56
2022/08/20 12:40:11;;;;;;;;;;;614.80;2432.00;;;;;;5072614;28;20290;-56
2022/08/20 12:42:37;;;;;;;;;;;614.80;2432.00;;;;;;5073147;28;20329;-56
2022/08/20 12:45:03;;;;;;;;;;;614.80;2432.00;;;;;;5072583;28;19954;-56
2022/08/20 12:47:30;;;;;;;;;;;614.70;2432.00;;;;;;5072689;28;19958;-56
2022/08/20 12:49:59;;;;;;;;;;;614.70;2432.00;;;;;;5072654;28;19908;-56
2022/08/20 12:52:24;;;;;;;;;;;614.70;2432.00;;;;;;5072529;28;19909;-56
2022/08/20 12:54:50;;;;;;;;;;;614.80;2432.00;;;;;;5072254;28;19908;-55
2022/08/20 12:57:24;;;;;;;;;;;614.90;2432.00;;;;;;5072570;28;19962;-56
2022/08/20 12:59:49;;;;;;;;;;;615.00;2432.00;;;;;;5071789;28;19916;-57
2022/08/20 13:02:16;;;;;;;;;;;615.00;2432.00;;;;;;5071032;28;19917;-58
2022/08/20 13:04:42;;;;;;;;;;;615.00;2432.00;;;;;;5070372;28;19983;-57
2022/08/20 13:07:09;;;;;;;;;;;615.20;2432.00;;;;;;5070975;28;19934;-57
2022/08/20 13:09:35;;;;;;;;;;;615.30;2432.00;;;;;;5071500;28;19912;-57
2022/08/20 13:12:00;;;;;;;;;;;615.20;2432.00;;;;;;5071966;28;19909;-56
2022/08/20 13:14:26;;;;;;;;;;;640.00;2432.00;;;;;;5072364;28;19908;-56
2022/08/20 13:16:56;;;;;;;;;;;640.20;2432.00;;;;;;5071804;28;19995;-56
2022/08/20 13:19:22;;;;;;;;;;;640.20;2432.00;;;;;;5071697;28;19916;-55
2022/08/20 13:21:47;;;;;;;;;;;640.20;2432.00;;;;;;5072013;28;20045;-56
2022/08/20 13:24:13;;;;;;;;;;;640.00;2432.00;;;;;;5071517;28;19908;-56
2022/08/20 13:26:39;;;;;;;;;;;640.00;2432.00;;;;;;5072086;28;19909;-56
2022/08/20 13:29:04;;;;;;;;;;;640.00;2432.00;;;;;;5071934;28;19908;-56
2022/08/20 13:31:30;;;;;;;;;;;640.20;2432.00;;;;;;5071359;28;19912;-56
2022/08/20 13:33:55;;;;;;;;;;;640.40;2432.00;;;;;;5071722;28;19913;-57
2022/08/20 13:36:21;;;;;;;;;;;640.70;2432.00;;;;;;5068271;28;19916;-56
2022/08/20 13:38:47;;;;;;;;;;;640.90;2432.00;;;;;;5069532;28;19966;-56
2022/08/20 13:41:12;;;;;;;;;;;640.70;2432.00;;;;;;5069175;28;19959;-56
2022/08/20 13:43:38;;;;;;;;;;;665.60;2432.00;;;;;;5069390;28;19912;-56
2022/08/20 13:46:05;;;;;;;;;;;665.70;2432.00;;;;;;5069136;28;20050;-56